createdAt,value
2017-06-06T00:00:20.205Z,0
2017-06-06T00:05:16.745Z,0
2017-06-06T00:10:12.915Z,0
2017-06-06T00:15:09.732Z,0
2017-06-06T00:20:06.032Z,0
2017-06-06T00:25:01.541Z,0
2017-06-06T00:29:57.404Z,0
2017-06-06T00:34:53.343Z,0
2017-06-06T00:39:49.164Z,0
2017-06-06T00:44:45.044Z,0
2017-06-06T00:49:42.093Z,0
2017-06-06T00:54:37.650Z,0
2017-06-06T00:59:34.383Z,0
2017-06-06T01:04:29.943Z,0
2017-06-06T01:09:26.951Z,0
2017-06-06T01:14:23.002Z,0
2017-06-06T01:19:18.775Z,0
2017-06-06T01:24:14.497Z,0
2017-06-06T01:29:10.334Z,0
2017-06-06T01:34:06.168Z,0
2017-06-06T01:39:01.965Z,0
2017-06-06T01:43:58.481Z,0
2017-06-06T01:48:54.343Z,0
2017-06-06T01:53:50.042Z,0
2017-06-06T01:58:45.916Z,0
2017-06-06T02:03:41.823Z,0
2017-06-06T02:08:38.688Z,0
2017-06-06T02:13:34.609Z,0
2017-06-06T02:18:30.465Z,0
2017-06-06T02:23:26.191Z,0
2017-06-06T02:28:22.283Z,0
2017-06-06T02:33:18.106Z,0
2017-06-06T02:38:14.002Z,0
2017-06-06T02:43:09.869Z,0
2017-06-06T02:48:06.122Z,0
2017-06-06T02:53:02.868Z,0
2017-06-06T02:57:58.895Z,0
2017-06-06T03:02:55.738Z,5
2017-06-06T03:07:51.318Z,5
2017-06-06T03:12:47.596Z,5
2017-06-06T03:17:44.593Z,10
2017-06-06T03:22:40.347Z,10
2017-06-06T03:27:37.608Z,10
2017-06-06T03:32:33.741Z,15
2017-06-06T03:37:30.677Z,20
2017-06-06T03:42:26.363Z,20
2017-06-06T03:47:21.924Z,25
2017-06-06T03:52:18.813Z,30
2017-06-06T03:57:14.443Z,35
2017-06-06T04:02:10.588Z,35
2017-06-06T04:07:06.510Z,45
2017-06-06T04:12:03.131Z,50
2017-06-06T04:17:00.080Z,60
2017-06-06T04:21:56.471Z,70
2017-06-06T04:26:53.154Z,75
2017-06-06T04:31:49.264Z,85
2017-06-06T04:36:45.270Z,100
2017-06-06T04:41:41.758Z,110
2017-06-06T04:46:37.798Z,95
2017-06-06T04:51:35.811Z,95
2017-06-06T04:56:31.033Z,100
2017-06-06T05:01:26.938Z,110
2017-06-06T05:06:22.923Z,115
2017-06-06T05:11:20.509Z,125
2017-06-06T05:16:17.721Z,115
2017-06-06T05:21:13.170Z,130
2017-06-06T05:26:09.992Z,150
2017-06-06T05:31:05.766Z,180
2017-06-06T05:36:01.902Z,195
2017-06-06T05:40:58.252Z,175
2017-06-06T05:45:54.368Z,185
2017-06-06T05:50:50.477Z,190
2017-06-06T05:55:46.458Z,195
2017-06-06T06:00:43.786Z,210
2017-06-06T06:05:39.605Z,230
2017-06-06T06:10:35.498Z,230
2017-06-06T06:15:31.675Z,235
2017-06-06T06:20:27.710Z,245
2017-06-06T06:25:23.904Z,215
2017-06-06T06:30:21.127Z,240
2017-06-06T06:35:16.942Z,260
2017-06-06T06:40:12.892Z,290
2017-06-06T06:45:09.013Z,295
2017-06-06T06:50:05.054Z,245
2017-06-06T06:55:01.804Z,190
2017-06-06T06:59:57.433Z,170
2017-06-06T07:04:54.212Z,195
2017-06-06T07:09:51.860Z,225
2017-06-06T07:14:47.348Z,275
2017-06-06T07:19:43.404Z,270
2017-06-06T07:24:41.845Z,200
2017-06-06T07:29:36.996Z,175
2017-06-06T07:34:32.568Z,165
2017-06-06T07:39:29.499Z,195
2017-06-06T07:44:25.925Z,215
2017-06-06T07:49:23.005Z,265
2017-06-06T07:54:18.936Z,235
2017-06-06T07:59:14.890Z,220
2017-06-06T08:04:11.834Z,255
2017-06-06T08:09:08.539Z,275
2017-06-06T08:14:04.246Z,285
2017-06-06T08:19:00.163Z,260
2017-06-06T08:23:56.272Z,370
2017-06-06T08:28:52.680Z,375
2017-06-06T08:33:49.993Z,375
2017-06-06T08:38:48.434Z,190
2017-06-06T08:43:43.465Z,170
2017-06-06T08:48:39.023Z,145
2017-06-06T08:53:34.775Z,140
2017-06-06T08:58:30.527Z,95
2017-06-06T09:03:26.038Z,110
2017-06-06T09:08:21.775Z,170
2017-06-06T09:13:18.193Z,150
2017-06-06T09:18:14.027Z,90
2017-06-06T09:23:09.619Z,85
2017-06-06T09:28:06.683Z,130
2017-06-06T09:33:02.312Z,100
2017-06-06T09:37:58.160Z,180
2017-06-06T09:42:55.320Z,225
2017-06-06T09:47:51.963Z,225
2017-06-06T09:52:48.317Z,235
2017-06-06T09:57:45.711Z,255
2017-06-06T10:02:41.572Z,235
2017-06-06T10:07:37.752Z,200
2017-06-06T10:12:34.524Z,160
2017-06-06T10:17:30.602Z,105
2017-06-06T10:22:26.573Z,140
2017-06-06T10:27:21.760Z,190
2017-06-06T10:32:18.543Z,235
2017-06-06T10:37:15.499Z,225
2017-06-06T10:42:11.335Z,355
2017-06-06T10:47:08.349Z,270
2017-06-06T10:52:05.309Z,120
2017-06-06T10:57:00.627Z,165
2017-06-06T11:01:57.600Z,210
2017-06-06T11:06:53.104Z,215
2017-06-06T11:11:48.886Z,830
2017-06-06T11:16:47.045Z,395
2017-06-06T11:21:43.620Z,360
2017-06-06T11:26:40.315Z,455
2017-06-06T11:31:37.399Z,295
2017-06-06T11:36:33.782Z,210
2017-06-06T11:41:29.837Z,185
2017-06-06T11:46:26.669Z,205
2017-06-06T11:51:23.143Z,225
2017-06-06T11:56:19.004Z,250
2017-06-06T12:01:15.758Z,250
2017-06-06T12:06:11.775Z,255
2017-06-06T12:11:07.825Z,360
2017-06-06T12:16:04.851Z,340
2017-06-06T12:21:00.652Z,710
2017-06-06T12:25:59.382Z,685
2017-06-06T12:30:55.872Z,670
2017-06-06T12:35:53.336Z,2420
2017-06-06T12:40:52.847Z,2240
2017-06-06T12:45:47.546Z,300
2017-06-06T12:50:44.741Z,1995
2017-06-06T12:55:39.954Z,310
2017-06-06T13:00:37.485Z,485
2017-06-06T13:05:35.351Z,1910
2017-06-06T13:10:33.504Z,2095
2017-06-06T13:15:29.616Z,745
2017-06-06T13:20:25.175Z,385
2017-06-06T13:25:18.849Z,1945
2017-06-06T13:30:15.607Z,2170
2017-06-06T13:35:12.366Z,2075
2017-06-06T13:40:08.431Z,1990
2017-06-06T13:45:04.335Z,1440
2017-06-06T13:49:59.962Z,2105
2017-06-06T13:54:55.197Z,175
2017-06-06T13:59:50.636Z,2085
2017-06-06T14:04:46.115Z,210
2017-06-06T14:09:41.676Z,310
2017-06-06T14:14:37.163Z,320
2017-06-06T14:19:32.763Z,200
2017-06-06T14:24:28.390Z,330
2017-06-06T14:29:24.520Z,215
2017-06-06T14:34:21.168Z,110
2017-06-06T14:39:16.849Z,210
2017-06-06T14:44:13.479Z,255
2017-06-06T14:49:10.075Z,160
2017-06-06T14:54:05.798Z,280
2017-06-06T14:59:01.810Z,185
2017-06-06T15:03:57.725Z,175
2017-06-06T15:08:55.382Z,155
2017-06-06T15:13:51.048Z,145
2017-06-06T15:18:47.878Z,185
2017-06-06T15:23:43.482Z,130
2017-06-06T15:28:39.324Z,100
2017-06-06T15:33:36.101Z,120
2017-06-06T15:38:32.684Z,205
2017-06-06T15:43:28.234Z,230
2017-06-06T15:48:24.592Z,195
2017-06-06T15:53:20.751Z,145
2017-06-06T15:58:16.183Z,130
2017-06-06T16:03:13.577Z,130
2017-06-06T16:08:10.061Z,105
2017-06-06T16:13:06.637Z,120
2017-06-06T16:18:03.667Z,90
2017-06-06T16:23:00.326Z,90
2017-06-06T16:27:57.073Z,95
2017-06-06T16:32:52.674Z,80
2017-06-06T16:37:48.757Z,110
2017-06-06T16:42:44.740Z,90
2017-06-06T16:47:40.809Z,90
2017-06-06T16:52:37.321Z,80
2017-06-06T16:57:35.288Z,145
2017-06-06T17:02:31.958Z,105
2017-06-06T17:07:27.753Z,95
2017-06-06T17:12:25.885Z,100
2017-06-06T17:17:21.822Z,95
2017-06-06T17:22:18.461Z,50
2017-06-06T17:27:13.923Z,45
2017-06-06T17:32:10.788Z,15
2017-06-06T17:37:06.120Z,50
2017-06-06T17:42:02.826Z,75
2017-06-06T17:46:58.318Z,125
2017-06-06T17:51:54.225Z,110
2017-06-06T17:56:51.195Z,90
2017-06-06T18:01:47.005Z,70
2017-06-06T18:06:42.601Z,60
2017-06-06T18:11:38.571Z,60
2017-06-06T18:16:35.037Z,55
2017-06-06T18:21:31.199Z,70
2017-06-06T18:26:27.160Z,45
2017-06-06T18:31:22.999Z,45
2017-06-06T18:36:18.758Z,35
2017-06-06T18:41:14.499Z,35
2017-06-06T18:46:10.193Z,30
2017-06-06T18:51:06.386Z,40
2017-06-06T18:56:02.186Z,30
2017-06-06T19:00:58.218Z,20
2017-06-06T19:05:56.429Z,15
2017-06-06T19:10:51.511Z,10
2017-06-06T19:15:47.644Z,5
2017-06-06T19:20:43.709Z,5
2017-06-06T19:25:39.543Z,0
2017-06-06T19:30:36.439Z,0
2017-06-06T19:35:31.971Z,5
2017-06-06T19:40:27.562Z,5
2017-06-06T19:45:24.186Z,0
2017-06-06T19:50:22.173Z,0
2017-06-06T19:55:18.683Z,0
2017-06-06T20:00:15.186Z,0
2017-06-06T20:05:12.945Z,0
2017-06-06T20:10:09.561Z,0
2017-06-06T20:15:06.142Z,0
2017-06-06T20:20:04.659Z,0
2017-06-06T20:25:00.930Z,0
2017-06-06T20:29:56.489Z,0
2017-06-06T20:34:52.456Z,0
2017-06-06T20:39:48.196Z,0
2017-06-06T20:44:44.467Z,0
2017-06-06T20:49:40.308Z,0
2017-06-06T20:54:36.003Z,0
2017-06-06T20:59:32.044Z,0
2017-06-06T21:04:27.681Z,0
2017-06-06T21:09:23.526Z,0
2017-06-06T21:14:19.225Z,0
2017-06-06T21:19:15.179Z,0
2017-06-06T21:24:11.189Z,0
2017-06-06T21:29:07.489Z,0
2017-06-06T21:34:03.277Z,0
2017-06-06T21:39:01.270Z,0
2017-06-06T21:43:58.172Z,0
2017-06-06T21:48:54.730Z,0
2017-06-06T21:53:50.712Z,0
2017-06-06T21:58:46.517Z,0
2017-06-06T22:03:42.732Z,0
2017-06-06T22:08:38.935Z,0
2017-06-06T22:13:34.817Z,0
2017-06-06T22:18:31.633Z,0
2017-06-06T22:23:27.665Z,0
2017-06-06T22:28:24.481Z,0
2017-06-06T22:33:20.002Z,0
2017-06-06T22:38:16.213Z,0
2017-06-06T22:43:12.255Z,0
2017-06-06T22:48:08.908Z,0
2017-06-06T22:53:04.458Z,0
2017-06-06T22:58:01.238Z,0
2017-06-06T23:02:56.836Z,0
2017-06-06T23:07:52.600Z,0
2017-06-06T23:12:48.700Z,0
2017-06-06T23:17:44.713Z,0
2017-06-06T23:22:40.600Z,0
2017-06-06T23:27:36.213Z,0
2017-06-06T23:32:31.781Z,0
2017-06-06T23:37:28.072Z,0
2017-06-06T23:42:23.725Z,0
2017-06-06T23:47:19.786Z,0
2017-06-06T23:52:16.592Z,0
2017-06-06T23:57:12.299Z,0
